M I D A S
Marine Information and Data Acquisition System
Tripno 1686 of the Zeeleeuw from 2009-05-04 08:00:00 to 2009-05-04 17:00:00
Back to CruiseResearch ActivitiesStationsMapUnderway DataData graphs

EquipmentUnitsComments
TimeDGPSUTC
LatitudeDGPSDM.mWGS84
LongitudeDGPSDM.mWGS84
SpeedMeteo Stationm/sRelative wind speed
DirectionMeteo StationdegRelative wind direction
TemperatureMeteo Stationdeg CelciusAir temperature
PressureMeteo StationPaAtmospheric pressure
HumidityMeteo Station%Relative humidity
Missing or incorrect values are displayed as -999
Metereological data collected by the RV Zeeleeuw from 2009-05-04 08:00:00 to 2009-05-04 17:00:00
Time Latitude Longitude Speed Direction Temperature Pressure Humidity
2009-05-04 13:47 51°12.403 2°41.061 2.8 267 11.4 102650 58
2009-05-04 13:48 51°12.512 2°41.297 1.8 263 11.3 102640 58
2009-05-04 13:49 51°12.623 2°41.54 1.6 264 11.4 102640 59
2009-05-04 13:50 51°12.726 2°41.78 3.2 270 11.4 102640 60
2009-05-04 13:51 51°12.825 2°42.028 2.4 284 11.5 102640 60
2009-05-04 13:52 51°12.921 2°42.281 3 285 11.5 102640 58
2009-05-04 13:53 51°13.013 2°42.536 2.7 82 11.4 102640 58
2009-05-04 13:54 51°13.096 2°42.797 1.1 79 11.4 102640 57
2009-05-04 13:55 51°13.166 2°43.067 2.1 81 11.4 102640 60
2009-05-04 13:56 51°13.239 2°43.337 2.6 76 11.4 102640 58
2009-05-04 13:57 51°13.311 2°43.594 2.7 80 11.4 102640 57
2009-05-04 13:58 51°13.387 2°43.856 2.3 79 11.4 102640 58
2009-05-04 13:59 51°13.461 2°44.111 2.5 74 11.4 102640 58
2009-05-04 14:00 51°13.531 2°44.381 2.2 80 11.5 102640 58
2009-05-04 14:01 51°13.603 2°44.64 1.6 78 11.4 102630 57
2009-05-04 14:02 51°13.678 2°44.907 1.9 80 11.4 102640 58
2009-05-04 14:03 51°13.748 2°45.174 2.4 76 11.5 102630 61
2009-05-04 14:04 51°13.82 2°45.431 2.3 77 11.5 102630 59
2009-05-04 14:05 51°13.894 2°45.698 2.2 76 11.5 102630 58
2009-05-04 14:06 51°13.963 2°45.959 2.3 75 11.5 102630 60
2009-05-04 14:07 51°14.038 2°46.225 3.7 76 11.5 102630 59
2009-05-04 14:08 51°14.102 2°46.484 1.7 78 11.4 102630 56
2009-05-04 14:09 51°14.121 2°46.763 2.9 39 11.5 102630 59
2009-05-04 14:10 51°14.127 2°47.046 2.2 77 11.6 102620 59
2009-05-04 14:11 51°14.128 2°47.332 3.4 43 11.6 102620 57
2009-05-04 14:12 51°14.125 2°47.626 2 42 11.5 102620 57
2009-05-04 14:13 51°14.124 2°47.909 2.1 42 11.4 102630 57
2009-05-04 14:14 51°14.122 2°48.2 1.9 40 11.4 102630 61
2009-05-04 14:15 51°14.146 2°48.476 1.3 76 11.4 102620 61
2009-05-04 14:16 51°14.181 2°48.757 2.8 82 11.5 102620 60
2009-05-04 14:17 51°14.215 2°49.031 1.7 80 11.5 102610 61
2009-05-04 14:18 51°14.247 2°49.309 1.7 79 11.7 102620 63
2009-05-04 14:19 51°14.28 2°49.59 2.8 81 11.7 102620 62
2009-05-04 14:20 51°14.312 2°49.862 2.1 74 11.7 102610 60
2009-05-04 14:21 51°14.344 2°50.145 1.5 74 11.6 102620 58
2009-05-04 14:22 51°14.373 2°50.419 0.5 80 11.7 102620 60
2009-05-04 14:23 51°14.404 2°50.702 2.8 82 11.8 102610 58
2009-05-04 14:24 51°14.435 2°50.973 2.3 79 11.7 102610 56
2009-05-04 14:25 51°14.467 2°51.255 2 81 11.7 102610 58
2009-05-04 14:26 51°14.497 2°51.529 2.2 74 11.8 102610 57
2009-05-04 14:27 51°14.536 2°51.81 1.2 81 11.8 102610 56
2009-05-04 14:28 51°14.557 2°52.089 2.7 42 11.8 102610 57
2009-05-04 14:29 51°14.548 2°52.371 2.4 43 11.7 102600 59
2009-05-04 14:30 51°14.532 2°52.664 1.5 36 11.7 102610 60
2009-05-04 14:31 51°14.517 2°52.949 2.3 38 11.7 102610 62
2009-05-04 14:32 51°14.513 2°53.242 1.9 41 11.7 102610 60
2009-05-04 14:33 51°14.511 2°53.529 0.6 82 11.6 102610 59
2009-05-04 14:34 51°14.525 2°53.82 1.4 33 11.7 102610 61
2009-05-04 14:35 51°14.538 2°54.112 2 26 11.7 102610 60
2009-05-04 14:36 51°14.522 2°54.402 3.2 19 11.7 102600 61
2009-05-04 14:37 51°14.481 2°54.685 4.6 25 11.6 102600 58
2009-05-04 14:38 51°14.413 2°54.947 4.6 20 11.6 102600 62
2009-05-04 14:39 51°14.313 2°55.2 5.8 4 11.6 102600 63
2009-05-04 14:40 51°14.193 2°55.356 5 11 11.5 102590 63
2009-05-04 14:41 51°14.085 2°55.458 4.8 279 11.5 102600 61